Time;durP1;ratioP1;P1;durP2;ratioP2;P2;SDS_P1;SDS_P2;PMS_P1;PMS_P2;Temp;Humidity;BMP_temperature;BMP_pressure;BME280_temperature;BME280_humidity;BME280_pressure;Samples;Min_cycle;Max_cycle;Signal;HPM_P1;HPM_P2
2022/06/06 00:01:41;;;;;;;2.20;1.80;;;;;;;;;;5103488;28;20027;-79
2022/06/06 00:04:07;;;;;;;4.40;2.00;;;;;;;;;;5100757;28;20077;-79
2022/06/06 00:06:32;;;;;;;2.13;1.77;;;;;;;;;;5100197;28;20280;-80
2022/06/06 00:08:58;;;;;;;3.30;1.90;;;;;;;;;;5107486;28;20376;-80
2022/06/06 00:11:24;;;;;;;6.00;1.95;;;;;;;;;;5109586;28;20026;-79
2022/06/06 00:13:49;;;;;;;2.95;2.03;;;;;;;;;;5115494;28;20019;-80
2022/06/06 00:16:14;;;;;;;1.90;1.75;;;;;;;;;;5084958;28;20073;-80
2022/06/06 00:18:40;;;;;;;5.57;2.15;;;;;;;;;;5083457;28;20760;-80
2022/06/06 00:21:08;;;;;;;2.78;1.80;;;;;;;;;;5078744;28;20080;-79
2022/06/06 00:23:34;;;;;;;4.43;2.15;;;;;;;;;;5114399;28;20024;-79
2022/06/06 00:26:00;;;;;;;5.55;2.15;;;;;;;;;;5104674;28;20082;-79
2022/06/06 00:28:26;;;;;;;2.03;1.70;;;;;;;;;;5108814;28;20106;-79
2022/06/06 00:34:48;;;;;;;4.40;2.28;;;;;;;;;;5102085;28;20016;-79
2022/06/06 00:36:31;;;;;;;3.28;2.50;;;;;;;;;;5085769;28;19966;-78
2022/06/06 00:38:56;;;;;;;2.67;2.00;;;;;;;;;;5104252;28;20031;-78
2022/06/06 00:41:22;;;;;;;3.78;1.80;;;;;;;;;;5096423;28;20344;-78
2022/06/06 00:44:11;;;;;;;2.63;2.05;;;;;;;;;;5106978;28;20016;-78
2022/06/06 00:46:42;;;;;;;4.53;2.55;;;;;;;;;;5095154;28;20509;-78
2022/06/06 00:49:14;;;;;;;5.80;2.22;;;;;;;;;;5088148;28;20032;-79
2022/06/06 00:51:40;;;;;;;2.50;2.05;;;;;;;;;;5094707;28;20024;-79
2022/06/06 00:54:06;;;;;;;6.75;2.50;;;;;;;;;;5095567;28;20030;-78
2022/06/06 00:56:46;;;;;;;2.72;2.10;;;;;;;;;;5100547;28;20500;-78
2022/06/06 00:59:16;;;;;;;2.25;2.05;;;;;;;;;;5111002;28;20031;-79
2022/06/06 01:01:43;;;;;;;3.83;2.15;;;;;;;;;;5114833;28;20020;-78
2022/06/06 01:04:11;;;;;;;2.65;2.15;;;;;;;;;;5103870;28;20422;-78
2022/06/06 01:06:41;;;;;;;5.32;2.47;;;;;;;;;;5084227;28;20016;-78
2022/06/06 01:09:06;;;;;;;2.50;2.30;;;;;;;;;;5089268;28;20029;-78
2022/06/06 01:11:37;;;;;;;4.68;2.45;;;;;;;;;;5115547;28;20027;-78
2022/06/06 01:14:05;;;;;;;4.70;2.37;;;;;;;;;;5118500;28;20032;-79
2022/06/06 01:17:02;;;;;;;6.20;2.58;;;;;;;;;;5115497;28;20310;-79
2022/06/06 01:19:52;;;;;;;3.10;2.30;;;;;;;;;;5103992;28;20051;-78
2022/06/06 01:22:39;;;;;;;4.35;2.28;;;;;;;;;;5130753;28;20010;-79
2022/06/06 01:25:47;;;;;;;3.10;2.20;;;;;;;;;;5129326;28;20023;-79
2022/06/06 01:28:22;;;;;;;2.03;1.83;;;;;;;;;;5087453;28;20031;-79
2022/06/06 01:30:52;;;;;;;6.22;2.47;;;;;;;;;;5116626;28;20027;-82
2022/06/06 01:33:18;;;;;;;2.40;2.15;;;;;;;;;;5115357;28;20091;-78
2022/06/06 01:35:46;;;;;;;7.35;2.30;;;;;;;;;;5102792;28;20370;-78
2022/06/06 01:38:16;;;;;;;2.78;2.13;;;;;;;;;;5097915;28;20036;-80
2022/06/06 01:41:01;;;;;;;2.58;2.28;;;;;;;;;;5096763;28;20040;-80
2022/06/06 01:43:34;;;;;;;3.22;2.40;;;;;;;;;;5086195;28;20063;-80
2022/06/06 01:46:15;;;;;;;3.55;2.40;;;;;;;;;;5077886;28;20078;-81
2022/06/06 01:48:42;;;;;;;4.45;2.63;;;;;;;;;;5079464;28;20093;-80
2022/06/06 01:51:09;;;;;;;3.92;2.20;;;;;;;;;;5095561;28;20111;-80
2022/06/06 01:53:37;;;;;;;2.38;2.17;;;;;;;;;;5095589;28;20056;-80
2022/06/06 01:56:05;;;;;;;3.83;2.42;;;;;;;;;;5094838;28;20082;-80
2022/06/06 01:58:31;;;;;;;2.92;2.40;;;;;;;;;;5077145;28;20048;-80
2022/06/06 02:00:57;;;;;;;4.32;2.60;;;;;;;;;;5095641;28;20024;-81
2022/06/06 02:03:23;;;;;;;3.75;2.25;;;;;;;;;;5080130;28;20031;-81
2022/06/06 02:05:48;;;;;;;2.88;2.03;;;;;;;;;;5108212;28;20381;-80
2022/06/06 02:08:15;;;;;;;5.18;2.47;;;;;;;;;;5116115;28;20024;-79
2022/06/06 02:10:41;;;;;;;5.60;2.50;;;;;;;;;;5096578;28;20024;-80
2022/06/06 02:13:06;;;;;;;4.05;2.50;;;;;;;;;;5117700;28;20035;-80
2022/06/06 02:15:32;;;;;;;5.13;2.53;;;;;;;;;;5099935;28;20024;-79
2022/06/06 02:17:58;;;;;;;5.43;2.90;;;;;;;;;;5107646;28;20024;-80
2022/06/06 02:20:27;;;;;;;5.75;2.75;;;;;;;;;;5104448;28;20115;-80
2022/06/06 02:22:53;;;;;;;12.13;3.20;;;;;;;;;;5118105;28;20048;-80
2022/06/06 02:25:19;;;;;;;6.00;2.75;;;;;;;;;;5117517;28;20015;-80
2022/06/06 02:27:44;;;;;;;5.15;2.80;;;;;;;;;;5117466;28;20019;-80
2022/06/06 02:30:17;;;;;;;3.15;2.58;;;;;;;;;;5117847;28;20104;-80
2022/06/06 02:32:42;;;;;;;3.30;2.67;;;;;;;;;;5106255;28;20036;-80
2022/06/06 02:35:13;;;;;;;4.85;3.10;;;;;;;;;;5109160;28;20019;-79
2022/06/06 02:37:39;;;;;;;3.97;3.03;;;;;;;;;;5117193;28;20064;-80
2022/06/06 02:40:07;;;;;;;3.42;2.72;;;;;;;;;;5117881;28;20030;-80
2022/06/06 02:42:32;;;;;;;6.50;2.50;;;;;;;;;;5117702;28;20111;-80
2022/06/06 02:44:57;;;;;;;5.38;3.25;;;;;;;;;;5116939;28;20442;-81
2022/06/06 02:47:23;;;;;;;3.13;2.83;;;;;;;;;;5098694;28;20366;-80
2022/06/06 02:49:48;;;;;;;4.53;3.08;;;;;;;;;;5105339;28;20024;-80
2022/06/06 02:52:13;;;;;;;4.85;2.70;;;;;;;;;;5113512;28;20076;-80
2022/06/06 02:54:39;;;;;;;6.18;2.72;;;;;;;;;;5117416;28;20020;-79
2022/06/06 02:57:05;;;;;;;3.63;2.67;;;;;;;;;;5116897;28;20027;-80
2022/06/06 02:59:33;;;;;;;3.17;2.78;;;;;;;;;;5099123;28;20306;-80
2022/06/06 03:01:59;;;;;;;2.90;2.53;;;;;;;;;;5091760;28;20449;-80
2022/06/06 03:04:24;;;;;;;4.50;2.80;;;;;;;;;;5085632;28;20493;-80
2022/06/06 03:07:20;;;;;;;3.75;2.78;;;;;;;;;;5116877;28;20117;-80
2022/06/06 03:10:08;;;;;;;2.58;2.30;;;;;;;;;;5098981;28;20091;-80
2022/06/06 03:12:57;;;;;;;5.90;2.88;;;;;;;;;;5117412;28;20038;-80
2022/06/06 03:20:46;;;;;;;2.95;2.65;;;;;;;;;;5116910;28;20023;-80
2022/06/06 03:21:47;;;;;;;6.68;2.97;;;;;;;;;;5098423;28;20058;-78
2022/06/06 03:24:24;;;;;;;4.53;3.05;;;;;;;;;;5105604;28;20024;-80
2022/06/06 03:27:13;;;;;;;4.60;2.88;;;;;;;;;;5061994;28;20044;-80
2022/06/06 03:29:57;;;;;;;7.50;3.10;;;;;;;;;;5085485;28;20019;-80
2022/06/06 03:32:50;;;;;;;4.85;2.78;;;;;;;;;;5103880;28;20127;-79
2022/06/06 03:35:40;;;;;;;3.70;3.10;;;;;;;;;;5094844;28;20046;-80
2022/06/06 03:38:20;;;;;;;3.28;2.83;;;;;;;;;;5103046;28;20024;-80
2022/06/06 03:40:56;;;;;;;4.85;2.55;;;;;;;;;;5095536;28;20020;-79
2022/06/06 03:43:51;;;;;;;7.05;3.10;;;;;;;;;;5106347;28;20028;-80
2022/06/06 03:47:01;;;;;;;5.40;3.20;;;;;;;;;;5120720;28;20482;-80
2022/06/06 03:50:05;;;;;;;3.50;3.20;;;;;;;;;;5089056;28;20064;-80
2022/06/06 03:52:45;;;;;;;4.60;3.00;;;;;;;;;;5047655;28;20394;-80
2022/06/06 03:55:11;;;;;;;5.95;2.90;;;;;;;;;;5112255;28;20098;-80
2022/06/06 03:57:36;;;;;;;3.20;2.85;;;;;;;;;;5119660;28;20445;-80
2022/06/06 04:00:11;;;;;;;5.03;3.30;;;;;;;;;;5120827;28;20024;-79
2022/06/06 04:02:38;;;;;;;4.90;3.42;;;;;;;;;;5108029;28;20061;-80
2022/06/06 04:05:06;;;;;;;3.00;2.53;;;;;;;;;;5106016;28;20020;-80
2022/06/06 04:07:33;;;;;;;6.35;3.20;;;;;;;;;;5111490;28;20026;-80
2022/06/06 04:09:58;;;;;;;4.47;3.30;;;;;;;;;;5102594;28;20027;-80
2022/06/06 04:12:24;;;;;;;5.13;3.22;;;;;;;;;;5120619;28;20053;-80
2022/06/06 04:14:51;;;;;;;4.25;3.17;;;;;;;;;;5120861;28;20094;-80
2022/06/06 04:17:34;;;;;;;4.63;3.30;;;;;;;;;;5119694;28;20080;-80
2022/06/06 04:20:07;;;;;;;6.40;3.25;;;;;;;;;;5098972;28;20023;-80
2022/06/06 04:22:35;;;;;;;3.08;2.80;;;;;;;;;;5108565;28;20051;-79
2022/06/06 04:25:06;;;;;;;4.53;3.10;;;;;;;;;;5079939;28;20047;-79
2022/06/06 04:27:52;;;;;;;4.78;3.08;;;;;;;;;;5098088;28;20027;-77
2022/06/06 04:30:39;;;;;;;6.00;3.20;;;;;;;;;;5099081;28;20024;-80
2022/06/06 04:33:19;;;;;;;8.45;3.25;;;;;;;;;;5080489;28;20399;-81
2022/06/06 04:36:20;;;;;;;10.77;3.83;;;;;;;;;;5107682;28;20019;-78
2022/06/06 04:39:00;;;;;;;4.43;3.45;;;;;;;;;;5121837;28;20473;-78
2022/06/06 04:41:31;;;;;;;4.20;3.47;;;;;;;;;;5122783;28;20066;-78
2022/06/06 04:43:59;;;;;;;6.85;3.17;;;;;;;;;;5122964;28;20027;-78
2022/06/06 04:46:34;;;;;;;7.15;3.80;;;;;;;;;;5104497;28;20083;-79
2022/06/06 04:49:00;;;;;;;3.58;3.28;;;;;;;;;;5086137;28;20031;-76
2022/06/06 04:51:25;;;;;;;4.80;3.35;;;;;;;;;;5117583;28;20023;-78
2022/06/06 04:53:54;;;;;;;5.15;3.50;;;;;;;;;;5102840;28;20111;-77
2022/06/06 04:56:21;;;;;;;4.28;3.33;;;;;;;;;;5101455;28;20053;-79
2022/06/06 04:58:49;;;;;;;6.00;3.45;;;;;;;;;;5098609;28;20047;-80
2022/06/06 05:01:15;;;;;;;6.07;3.30;;;;;;;;;;5098616;28;20084;-80
2022/06/06 05:03:40;;;;;;;4.78;3.78;;;;;;;;;;5101106;28;20023;-80
2022/06/06 05:06:25;;;;;;;4.93;3.75;;;;;;;;;;5114263;28;20031;-80
2022/06/06 05:08:50;;;;;;;7.72;3.28;;;;;;;;;;5118613;28;20032;-80
2022/06/06 05:11:51;;;;;;;5.97;3.20;;;;;;;;;;5119016;28;20031;-78
2022/06/06 05:14:20;;;;;;;4.23;3.07;;;;;;;;;;5084093;28;20024;-80
2022/06/06 05:17:10;;;;;;;3.72;3.08;;;;;;;;;;5097894;28;20020;-81
2022/06/06 05:19:50;;;;;;;5.45;3.08;;;;;;;;;;5092873;28;20032;-81
2022/06/06 05:22:41;;;;;;;6.15;2.60;;;;;;;;;;5095321;28;20555;-80
2022/06/06 05:25:16;;;;;;;3.75;2.80;;;;;;;;;;5101014;28;20020;-80
2022/06/06 05:28:02;;;;;;;7.07;2.70;;;;;;;;;;5097327;28;20046;-80
2022/06/06 05:31:09;;;;;;;5.07;2.90;;;;;;;;;;5097622;28;20546;-80
2022/06/06 05:33:44;;;;;;;5.97;2.65;;;;;;;;;;5099836;28;20023;-80
2022/06/06 05:37:01;;;;;;;4.28;2.60;;;;;;;;;;5113335;28;20023;-81
2022/06/06 05:39:58;;;;;;;3.17;2.22;;;;;;;;;;5089909;28;20055;-80
2022/06/06 05:42:26;;;;;;;3.08;2.63;;;;;;;;;;5117606;28;20552;-81
2022/06/06 05:45:21;;;;;;;3.08;2.58;;;;;;;;;;5117839;28;20028;-81
2022/06/06 05:47:55;;;;;;;5.45;2.78;;;;;;;;;;5068677;28;20494;-80
2022/06/06 05:50:35;;;;;;;6.07;2.85;;;;;;;;;;5099438;28;20161;-80
2022/06/06 05:53:34;;;;;;;2.92;2.47;;;;;;;;;;5103281;28;20019;-80
2022/06/06 05:56:06;;;;;;;4.47;2.25;;;;;;;;;;5086622;28;20024;-80
2022/06/06 05:58:57;;;;;;;6.18;2.92;;;;;;;;;;5116238;28;20477;-80
2022/06/06 06:01:25;;;;;;;4.72;2.65;;;;;;;;;;5117780;28;20032;-79
2022/06/06 06:04:33;;;;;;;3.67;2.63;;;;;;;;;;5100562;28;20055;-80
2022/06/06 06:07:08;;;;;;;5.20;2.30;;;;;;;;;;4994957;28;20029;-80
2022/06/06 06:09:42;;;;;;;5.60;2.92;;;;;;;;;;4977490;28;20551;-80
2022/06/06 06:12:29;;;;;;;4.22;2.72;;;;;;;;;;5070954;28;20031;-80
2022/06/06 06:15:22;;;;;;;5.57;2.67;;;;;;;;;;5058880;28;20401;-80
2022/06/06 06:17:52;;;;;;;4.40;2.80;;;;;;;;;;5077217;28;20031;-80
2022/06/06 06:20:19;;;;;;;4.90;2.65;;;;;;;;;;5084732;28;20371;-80
2022/06/06 06:22:56;;;;;;;6.18;2.65;;;;;;;;;;5109527;28;20092;-80
2022/06/06 06:25:24;;;;;;;3.28;2.67;;;;;;;;;;5085477;28;20110;-81
2022/06/06 06:27:53;;;;;;;3.78;2.90;;;;;;;;;;5108850;28;20023;-81
2022/06/06 06:30:19;;;;;;;4.07;2.75;;;;;;;;;;5099457;28;20430;-80
2022/06/06 06:33:23;;;;;;;5.63;2.47;;;;;;;;;;5105459;28;20043;-80
2022/06/06 06:36:25;;;;;;;3.42;2.60;;;;;;;;;;5103866;28;20313;-81
2022/06/06 06:38:53;;;;;;;4.00;2.83;;;;;;;;;;5117017;28;20032;-80
2022/06/06 06:41:33;;;;;;;2.78;2.50;;;;;;;;;;5117047;28;20049;-79
2022/06/06 06:44:07;;;;;;;5.82;2.53;;;;;;;;;;5117443;28;20078;-80
2022/06/06 06:46:54;;;;;;;3.38;2.70;;;;;;;;;;5116813;28;20070;-81
2022/06/06 06:49:34;;;;;;;5.13;2.70;;;;;;;;;;5101359;28;20419;-80
2022/06/06 06:52:26;;;;;;;4.90;2.10;;;;;;;;;;5093675;28;20074;-81
2022/06/06 06:55:29;;;;;;;2.88;2.47;;;;;;;;;;5103758;28;20029;-80
2022/06/06 06:57:57;;;;;;;3.38;2.20;;;;;;;;;;5120508;28;20106;-81
2022/06/06 07:00:23;;;;;;;4.75;2.35;;;;;;;;;;5121908;28;20028;-81
2022/06/06 07:09:06;;;;;;;3.70;2.40;;;;;;;;;;5120526;28;20092;-80
2022/06/06 07:11:55;;;;;;;5.10;2.45;;;;;;;;;;5079109;28;20485;-80
2022/06/06 07:14:39;;;;;;;6.28;2.53;;;;;;;;;;5106937;28;20558;-80
2022/06/06 07:17:05;;;;;;;2.55;2.30;;;;;;;;;;5113653;28;20028;-81
2022/06/06 07:20:06;;;;;;;3.60;2.67;;;;;;;;;;5091675;28;20069;-81
2022/06/06 07:25:23;;;;;;;4.30;2.38;;;;;;;;;;5121125;28;20253;-79
2022/06/06 07:27:49;;;;;;;3.70;2.47;;;;;;;;;;5120396;28;20093;-80
2022/06/06 07:30:14;;;;;;;5.10;2.67;;;;;;;;;;5121015;28;20477;-80
2022/06/06 07:32:48;;;;;;;4.68;2.38;;;;;;;;;;5108782;28;20028;-81
2022/06/06 07:35:47;;;;;;;3.33;2.45;;;;;;;;;;5112018;28;20026;-80
2022/06/06 07:38:35;;;;;;;6.28;2.20;;;;;;;;;;5119693;28;20051;-79
2022/06/06 07:41:14;;;;;;;2.67;2.22;;;;;;;;;;5106169;28;20036;-79
2022/06/06 07:44:05;;;;;;;8.43;2.15;;;;;;;;;;5120422;28;20024;-80
2022/06/06 07:46:38;;;;;;;2.60;2.40;;;;;;;;;;5113342;28;20489;-78
2022/06/06 07:49:35;;;;;;;4.82;2.40;;;;;;;;;;5102323;28;20482;-78
2022/06/06 07:52:32;;;;;;;2.83;2.10;;;;;;;;;;5106105;28;20468;-78
2022/06/06 07:55:19;;;;;;;2.63;2.03;;;;;;;;;;5093937;28;20028;-80
2022/06/06 07:58:25;;;;;;;2.85;2.03;;;;;;;;;;5097437;28;20505;-79
2022/06/06 08:01:15;;;;;;;3.75;2.00;;;;;;;;;;5098743;28;20032;-79
2022/06/06 08:03:52;;;;;;;3.17;2.20;;;;;;;;;;5100349;28;20061;-79
2022/06/06 08:06:36;;;;;;;4.28;2.20;;;;;;;;;;5114261;28;20101;-79
2022/06/06 08:09:14;;;;;;;4.03;2.33;;;;;;;;;;5117036;28;20019;-79
2022/06/06 08:12:08;;;;;;;5.60;2.60;;;;;;;;;;5118693;28;20077;-79
2022/06/06 08:15:10;;;;;;;4.07;2.30;;;;;;;;;;5118731;28;20019;-79
2022/06/06 08:17:57;;;;;;;3.00;2.08;;;;;;;;;;5099654;28;20024;-79
2022/06/06 08:20:27;;;;;;;6.35;2.38;;;;;;;;;;5108704;28;20036;-80
2022/06/06 08:22:56;;;;;;;3.22;2.30;;;;;;;;;;5101121;28;20063;-79
2022/06/06 08:25:23;;;;;;;4.70;2.30;;;;;;;;;;5108898;28;20031;-79
2022/06/06 08:27:51;;;;;;;4.75;2.17;;;;;;;;;;5102414;28;20020;-79
2022/06/06 08:30:18;;;;;;;2.85;1.88;;;;;;;;;;5102951;28;20478;-80
2022/06/06 08:32:44;;;;;;;3.00;2.05;;;;;;;;;;5100139;28;20516;-79
2022/06/06 08:35:10;;;;;;;2.22;1.75;;;;;;;;;;5114583;28;20054;-79
2022/06/06 08:37:38;;;;;;;3.33;1.83;;;;;;;;;;5122506;28;20031;-79
2022/06/06 08:40:09;;;;;;;6.03;2.40;;;;;;;;;;5123056;28;20106;-79
2022/06/06 08:43:03;;;;;;;3.28;1.83;;;;;;;;;;5122072;28;20106;-79
2022/06/06 08:46:06;;;;;;;4.72;2.00;;;;;;;;;;5117505;28;20079;-80
2022/06/06 08:48:54;;;;;;;4.47;2.03;;;;;;;;;;5102114;28;20052;-79
2022/06/06 08:51:41;;;;;;;4.65;1.90;;;;;;;;;;5063992;28;20119;-79
2022/06/06 08:54:18;;;;;;;2.63;1.67;;;;;;;;;;5097392;28;20028;-80
2022/06/06 08:57:11;;;;;;;1.80;1.60;;;;;;;;;;5097826;28;20127;-80
2022/06/06 08:59:58;;;;;;;2.75;1.70;;;;;;;;;;5097894;28;20030;-80
2022/06/06 09:02:33;;;;;;;3.83;1.63;;;;;;;;;;5093093;28;20093;-80
2022/06/06 09:05:17;;;;;;;4.63;1.80;;;;;;;;;;5106548;28;20024;-80
2022/06/06 09:08:01;;;;;;;1.77;1.60;;;;;;;;;;5116294;28;20328;-79
2022/06/06 09:10:42;;;;;;;2.42;1.50;;;;;;;;;;5109302;28;20048;-80
2022/06/06 09:13:13;;;;;;;1.80;1.40;;;;;;;;;;5084727;28;20051;-80
2022/06/06 09:16:03;;;;;;;3.08;1.55;;;;;;;;;;5079715;28;20049;-80
2022/06/06 09:18:48;;;;;;;2.15;1.60;;;;;;;;;;5091408;28;20024;-82
2022/06/06 09:21:25;;;;;;;3.75;1.80;;;;;;;;;;5109677;28;20024;-80
2022/06/06 09:24:25;;;;;;;2.70;1.65;;;;;;;;;;5122612;28;20059;-79
2022/06/06 09:27:03;;;;;;;5.28;1.73;;;;;;;;;;5109987;28;20019;-80
2022/06/06 09:29:37;;;;;;;1.70;1.60;;;;;;;;;;5117288;28;20027;-80
2022/06/06 09:32:08;;;;;;;1.63;1.52;;;;;;;;;;5109133;28;20032;-80
2022/06/06 09:34:48;;;;;;;1.92;1.55;;;;;;;;;;5106325;28;20019;-80
2022/06/06 09:38:11;;;;;;;2.47;1.40;;;;;;;;;;5117275;28;20031;-80
2022/06/06 09:41:06;;;;;;;6.38;2.17;;;;;;;;;;4998487;28;20625;-80
2022/06/06 09:43:46;;;;;;;1.90;1.52;;;;;;;;;;5007571;28;20153;-80
2022/06/06 09:46:17;;;;;;;4.22;1.50;;;;;;;;;;5076178;28;20020;-80
2022/06/06 09:49:09;;;;;;;1.67;1.48;;;;;;;;;;5093264;28;20382;-80
2022/06/06 09:51:53;;;;;;;;;;;;;;;;;;5096935;28;20021;-80
2022/06/06 10:00:34;;;;;;;3.47;1.63;;;;;;;;;;5076232;28;20106;-80
2022/06/06 10:03:42;;;;;;;1.38;1.25;;;;;;;;;;5088501;28;20019;-80
2022/06/06 10:06:32;;;;;;;2.20;1.60;;;;;;;;;;5107847;28;20110;-80
2022/06/06 10:09:29;;;;;;;2.75;1.60;;;;;;;;;;5116828;28;20474;-80
2022/06/06 10:12:16;;;;;;;1.50;1.40;;;;;;;;;;5115974;28;20027;-80
2022/06/06 10:15:00;;;;;;;1.52;1.30;;;;;;;;;;5114974;28;20022;-81
2022/06/06 10:17:47;;;;;;;2.63;1.55;;;;;;;;;;5113426;28;20032;-80
2022/06/06 10:20:47;;;;;;;3.13;1.42;;;;;;;;;;5091336;28;20020;-80
2022/06/06 10:23:27;;;;;;;2.45;1.50;;;;;;;;;;5072365;28;20028;-79
2022/06/06 10:26:04;;;;;;;1.35;1.20;;;;;;;;;;5097749;28;20424;-80
2022/06/06 10:28:58;;;;;;;3.10;1.60;;;;;;;;;;5116672;28;20030;-80
2022/06/06 10:31:55;;;;;;;5.32;1.63;;;;;;;;;;5030902;28;20034;-80
2022/06/06 10:34:53;;;;;;;1.60;1.50;;;;;;;;;;5109650;28;20055;-79
2022/06/06 10:37:42;;;;;;;3.63;1.83;;;;;;;;;;5115713;28;20028;-80
2022/06/06 10:40:22;;;;;;;1.55;1.20;;;;;;;;;;5107454;28;20019;-79
2022/06/06 10:43:00;;;;;;;2.42;1.30;;;;;;;;;;5100715;28;20027;-80
2022/06/06 10:45:37;;;;;;;1.40;1.30;;;;;;;;;;5096618;28;20025;-80
2022/06/06 10:48:21;;;;;;;1.60;1.50;;;;;;;;;;5072429;28;20027;-80
2022/06/06 10:54:06;;;;;;;3.20;1.70;;;;;;;;;;5090336;28;20031;-81
2022/06/06 10:56:59;;;;;;;2.03;1.83;;;;;;;;;;5097309;28;20048;-85
2022/06/06 10:59:49;;;;;;;3.47;1.80;;;;;;;;;;5097757;28;20024;-81
2022/06/06 11:02:51;;;;;;;2.08;1.65;;;;;;;;;;5091487;28;20115;-81
2022/06/06 11:05:25;;;;;;;2.15;1.70;;;;;;;;;;5101878;28;20469;-81
2022/06/06 11:08:12;;;;;;;1.75;1.45;;;;;;;;;;5097259;28;20035;-81
2022/06/06 11:10:56;;;;;;;2.42;1.60;;;;;;;;;;5097295;28;20020;-81
2022/06/06 11:13:42;;;;;;;2.80;1.55;;;;;;;;;;5091380;28;20028;-81
2022/06/06 11:16:36;;;;;;;1.80;1.40;;;;;;;;;;5096332;28;20028;-81
2022/06/06 11:19:36;;;;;;;1.88;1.67;;;;;;;;;;5089158;28;20023;-82
2022/06/06 11:22:22;;;;;;;1.88;1.73;;;;;;;;;;5106656;28;20019;-81
2022/06/06 11:24:56;;;;;;;1.50;1.27;;;;;;;;;;5116955;28;20055;-81
2022/06/06 11:27:35;;;;;;;1.40;1.30;;;;;;;;;;5106693;28;20026;-81
2022/06/06 11:30:11;;;;;;;1.50;1.40;;;;;;;;;;5097125;28;20112;-81
2022/06/06 11:32:56;;;;;;;1.70;1.30;;;;;;;;;;5093521;28;20107;-81
2022/06/06 11:35:58;;;;;;;2.03;1.20;;;;;;;;;;5114378;28;20098;-81
2022/06/06 11:38:41;;;;;;;;;;;;;;;;;;5118881;28;20126;-80
2022/06/06 11:41:22;;;;;;;2.78;1.55;;;;;;;;;;5122183;28;19907;-81
2022/06/06 11:43:58;;;;;;;8.27;1.50;;;;;;;;;;5120712;28;20026;-80
2022/06/06 11:46:44;;;;;;;1.77;1.42;;;;;;;;;;5097450;28;20028;-80
2022/06/06 11:49:31;;;;;;;2.17;1.40;;;;;;;;;;5098862;28;20036;-80
2022/06/06 11:52:22;;;;;;;3.33;1.50;;;;;;;;;;5098333;28;20020;-80
2022/06/06 11:55:17;;;;;;;1.33;1.23;;;;;;;;;;5088115;28;20036;-80
2022/06/06 11:58:03;;;;;;;1.48;1.35;;;;;;;;;;5099959;28;20043;-80
2022/06/06 12:01:02;;;;;;;2.15;1.73;;;;;;;;;;5100516;28;20420;-81
2022/06/06 12:03:58;;;;;;;3.70;1.38;;;;;;;;;;5068492;28;20032;-80
2022/06/06 12:06:38;;;;;;;2.53;1.63;;;;;;;;;;5116879;28;20077;-79
2022/06/06 12:09:34;;;;;;;1.45;1.35;;;;;;;;;;5120086;28;20436;-80
2022/06/06 12:11:59;;;;;;;2.53;1.27;;;;;;;;;;5126052;28;20108;-81
2022/06/06 12:14:50;;;;;;;1.10;1.10;;;;;;;;;;5121016;28;20023;-81
2022/06/06 12:17:46;;;;;;;2.33;1.35;;;;;;;;;;5119853;28;20024;-81
2022/06/06 12:20:24;;;;;;;2.75;1.52;;;;;;;;;;5103333;28;20020;-81
2022/06/06 12:23:20;;;;;;;1.40;1.30;;;;;;;;;;5092164;28;20035;-81
2022/06/06 12:26:19;;;;;;;2.45;1.48;;;;;;;;;;5108396;28;20106;-80
2022/06/06 12:29:26;;;;;;;2.97;1.67;;;;;;;;;;5079560;28;20056;-81
2022/06/06 12:32:00;;;;;;;1.77;1.50;;;;;;;;;;5079575;28;20021;-81
2022/06/06 12:34:28;;;;;;;2.55;1.52;;;;;;;;;;5106024;28;20016;-81
2022/06/06 12:37:08;;;;;;;1.58;1.40;;;;;;;;;;5118833;28;20499;-80
2022/06/06 12:39:46;;;;;;;2.53;1.33;;;;;;;;;;5103797;28;20031;-81
2022/06/06 12:42:36;;;;;;;1.60;1.50;;;;;;;;;;5119401;28;20470;-81
2022/06/06 12:45:10;;;;;;;2.88;1.60;;;;;;;;;;5093092;28;20470;-81
2022/06/06 12:47:36;;;;;;;2.25;1.40;;;;;;;;;;5096766;28;20020;-81
2022/06/06 12:50:14;;;;;;;5.25;1.70;;;;;;;;;;5083452;28;20023;-81
2022/06/06 12:52:56;;;;;;;2.13;1.35;;;;;;;;;;5102418;28;20019;-81
2022/06/06 12:55:53;;;;;;;1.52;1.38;;;;;;;;;;5100294;28;20105;-80
2022/06/06 12:59:03;;;;;;;2.40;1.77;;;;;;;;;;5119118;28;20106;-80
2022/06/06 13:01:45;;;;;;;2.83;1.60;;;;;;;;;;5071489;28;20035;-81
2022/06/06 13:04:28;;;;;;;1.90;1.23;;;;;;;;;;5074742;28;20031;-81
2022/06/06 13:07:02;;;;;;;6.28;1.70;;;;;;;;;;5084953;28;20016;-80
2022/06/06 13:10:01;;;;;;;1.75;1.40;;;;;;;;;;5096846;28;20027;-80
2022/06/06 13:12:45;;;;;;;3.42;1.40;;;;;;;;;;5095780;28;20080;-82
2022/06/06 13:15:31;;;;;;;2.30;1.40;;;;;;;;;;5099546;28;20031;-81
2022/06/06 13:18:32;;;;;;;2.00;1.60;;;;;;;;;;5076180;28;20048;-81
2022/06/06 13:21:20;;;;;;;1.70;1.35;;;;;;;;;;5081971;28;20058;-81
2022/06/06 13:24:07;;;;;;;2.40;1.45;;;;;;;;;;5099002;28;20039;-81
2022/06/06 13:26:47;;;;;;;1.58;1.23;;;;;;;;;;5107469;28;20102;-81
2022/06/06 13:29:34;;;;;;;1.58;1.27;;;;;;;;;;5119139;28;20023;-81
2022/06/06 13:32:21;;;;;;;1.20;1.10;;;;;;;;;;5111685;28;20025;-81
2022/06/06 13:34:52;;;;;;;4.15;1.20;;;;;;;;;;5084619;28;20058;-81
2022/06/06 13:37:48;;;;;;;4.40;1.63;;;;;;;;;;5089687;22;20136;-79
2022/06/06 13:40:20;;;;;;;0.68;0.68;;;;;;;;;;5054895;28;20040;-79
2022/06/06 13:43:04;;;;;;;1.30;1.20;;;;;;;;;;5055236;28;20031;-80
2022/06/06 13:46:06;;;;;;;1.42;1.20;;;;;;;;;;5055385;28;20470;-79
2022/06/06 13:48:40;;;;;;;;;;;;;;;;;;5055333;28;20021;-78
2022/06/06 13:51:26;;;;;;;1.25;1.15;;;;;;;;;;5048869;28;19912;-79
2022/06/06 13:54:00;;;;;;;5.15;1.45;;;;;;;;;;5010229;28;20108;-79
2022/06/06 13:56:56;;;;;;;3.25;1.23;;;;;;;;;;5036135;28;20078;-79
2022/06/06 13:59:45;;;;;;;5.63;1.63;;;;;;;;;;5061713;28;20541;-79
2022/06/06 14:02:25;;;;;;;3.00;1.40;;;;;;;;;;5046428;28;20032;-79
2022/06/06 14:04:59;;;;;;;2.97;1.58;;;;;;;;;;5038973;28;20086;-79
2022/06/06 14:07:55;;;;;;;2.75;1.20;;;;;;;;;;5053736;28;20086;-79
2022/06/06 14:10:21;;;;;;;2.83;1.40;;;;;;;;;;5053607;28;20410;-79
2022/06/06 14:13:14;;;;;;;2.70;1.55;;;;;;;;;;5053016;28;20021;-78
2022/06/06 14:15:46;;;;;;;1.88;1.30;;;;;;;;;;5044257;28;20103;-79
2022/06/06 14:18:13;;;;;;;;;;;;;;;;;;5054277;28;20040;-79
2022/06/06 14:20:46;;;;;;;2.65;1.42;;;;;;;;;;5063582;28;20345;-79
2022/06/06 14:23:30;;;;;;;3.70;2.25;;;;;;;;;;5061788;28;20013;-79
2022/06/06 14:26:13;;;;;;;4.20;3.00;;;;;;;;;;5018564;28;20033;-78
2022/06/06 14:28:43;;;;;;;3.25;2.00;;;;;;;;;;5048212;28;20017;-78
2022/06/06 14:31:33;;;;;;;1.95;1.50;;;;;;;;;;5047540;28;20083;-77
2022/06/06 14:34:02;;;;;;;1.65;1.40;;;;;;;;;;5081314;28;20024;-77
2022/06/06 14:36:29;;;;;;;2.88;1.60;;;;;;;;;;5082989;28;20025;-78
2022/06/06 14:38:59;;;;;;;1.85;1.40;;;;;;;;;;5075092;28;20025;-79
2022/06/06 14:41:47;;;;;;;5.82;1.30;;;;;;;;;;5074189;28;20024;-79
2022/06/06 14:44:13;;;;;;;2.10;1.42;;;;;;;;;;5070215;28;20017;-79
2022/06/06 14:46:50;;;;;;;3.35;1.70;;;;;;;;;;5038961;28;20021;-80
2022/06/06 14:49:30;;;;;;;2.17;1.33;;;;;;;;;;5049429;28;20083;-79
2022/06/06 14:51:56;;;;;;;1.45;1.27;;;;;;;;;;5051434;28;20021;-79
2022/06/06 14:54:23;;;;;;;2.13;1.50;;;;;;;;;;5053203;28;20028;-79
2022/06/06 14:56:55;;;;;;;2.90;1.60;;;;;;;;;;5052984;28;20103;-79
2022/06/06 14:59:46;;;;;;;3.47;1.48;;;;;;;;;;5053022;28;20025;-79
2022/06/06 15:02:20;;;;;;;3.97;1.90;;;;;;;;;;5053820;28;20055;-80
2022/06/06 15:04:46;;;;;;;1.58;1.38;;;;;;;;;;5031684;28;20079;-79
2022/06/06 15:07:15;;;;;;;4.85;1.50;;;;;;;;;;5062278;28;20479;-79
2022/06/06 15:09:46;;;;;;;3.15;1.40;;;;;;;;;;5053264;28;20025;-78
2022/06/06 15:12:23;;;;;;;2.15;1.52;;;;;;;;;;5060597;28;20085;-79
2022/06/06 15:14:51;;;;;;;1.85;1.60;;;;;;;;;;5053101;28;20029;-78
2022/06/06 15:17:17;;;;;;;1.73;1.63;;;;;;;;;;5053094;28;20534;-78
2022/06/06 15:19:48;;;;;;;2.83;1.50;;;;;;;;;;5056158;28;20475;-77
2022/06/06 15:22:35;;;;;;;3.70;1.65;;;;;;;;;;5057233;28;20029;-78
2022/06/06 15:25:01;;;;;;;2.70;1.35;;;;;;;;;;5043335;28;20159;-78
2022/06/06 15:27:32;;;;;;;2.80;1.60;;;;;;;;;;5056399;28;20454;-77
2022/06/06 15:30:14;;;;;;;3.58;1.83;;;;;;;;;;5061196;28;20039;-77
2022/06/06 15:32:54;;;;;;;2.05;1.60;;;;;;;;;;5066476;28;20139;-78
2022/06/06 15:35:27;;;;;;;4.05;1.50;;;;;;;;;;5063924;28;20031;-78
2022/06/06 15:38:04;;;;;;;2.25;1.50;;;;;;;;;;5074917;28;20367;-77
2022/06/06 15:40:41;;;;;;;2.45;1.40;;;;;;;;;;5074997;28;20020;-77
2022/06/06 15:43:37;;;;;;;2.92;1.42;;;;;;;;;;5075323;28;20025;-78
2022/06/06 15:46:35;;;;;;;2.03;1.63;;;;;;;;;;5075629;28;20032;-77
2022/06/06 15:49:42;;;;;;;5.15;2.10;;;;;;;;;;5075251;28;20024;-79
2022/06/06 15:52:32;;;;;;;1.52;1.42;;;;;;;;;;5065610;28;20082;-79
2022/06/06 15:55:34;;;;;;;1.50;1.40;;;;;;;;;;5077333;28;20024;-79
2022/06/06 15:58:18;;;;;;;;;;;;;;;;;;5057489;28;20104;-77
2022/06/06 16:01:04;;;;;;;2.88;1.50;;;;;;;;;;5075358;28;20189;-80
2022/06/06 16:04:15;;;;;;;2.33;1.70;;;;;;;;;;5065399;28;20108;-78
2022/06/06 16:06:45;;;;;;;3.80;1.90;;;;;;;;;;5074257;28;20012;-79
2022/06/06 16:09:31;;;;;;;2.85;1.75;;;;;;;;;;5061553;28;20116;-79
2022/06/06 16:12:24;;;;;;;2.05;1.80;;;;;;;;;;5056481;28;20033;-79
2022/06/06 16:14:59;;;;;;;2.38;1.77;;;;;;;;;;5056776;28;20021;-78
2022/06/06 16:17:47;;;;;;;1.70;1.60;;;;;;;;;;5056175;28;20024;-79
2022/06/06 16:20:24;;;;;;;2.35;1.50;;;;;;;;;;5063964;28;20487;-79
2022/06/06 16:22:54;;;;;;;2.20;2.00;;;;;;;;;;5039126;28;20028;-79
2022/06/06 16:25:22;;;;;;;1.70;1.60;;;;;;;;;;5075345;28;20036;-79